VIR147 EGLL-CYYZ
Flight info
| Callsign | VIR147 |
|---|---|
| Flight time | N/A |
| Altitude | 36000 |
| Route | CPT L9 BUCGO DCT FELCA DCT NICXI DCT BAKUR DCT ABAGU DCT TIPUR DCT SHA DCT UNBEG DCT DOGAL/M081F380 NATA ALLRY/N0462F380 DCT QUBIS/N0478F400 DCT LETAK IMEBA9 |
| Aircraft | A346/H-SDE2E3FGHIJ3J4J5M1RWXY/LB1D1 |
Departure
| Time | 2026-05-01 14:30 |
|---|---|
| Airport | London Heathrow Airport (EGLL) |
Arrival
| Time | N/A |
|---|---|
| Airport | Toronto Pearson International Airport (CYYZ) |
| Time | Latitude | Longitude | Altitude | Speed | Heading |
|---|---|---|---|---|---|
| 2026-05-01 13:32 | 51.47097 | -0.46418 | 97 ft | 0 kts | 236° |
| 2026-05-01 14:12 | 51.47097 | -0.46417 | 97 ft | 0 kts | 236° |
| 2026-05-01 14:13 | 51.47099 | -0.46412 | 97 ft | 2 kts | 237° |
| 2026-05-01 14:13 | 51.47108 | -0.46383 | 97 ft | 2 kts | 256° |
| 2026-05-01 14:13 | 51.47111 | -0.46360 | 97 ft | 2 kts | 266° |
| 2026-05-01 14:14 | 51.47110 | -0.46335 | 97 ft | 2 kts | 278° |
| 2026-05-01 14:14 | 51.47107 | -0.46312 | 97 ft | 2 kts | 289° |
| 2026-05-01 14:14 | 51.47102 | -0.46290 | 97 ft | 2 kts | 300° |
| 2026-05-01 14:14 | 51.47094 | -0.46271 | 97 ft | 2 kts | 311° |
| 2026-05-01 14:15 | 51.47083 | -0.46254 | 97 ft | 2 kts | 322° |
| 2026-05-01 14:15 | 51.47071 | -0.46240 | 97 ft | 2 kts | 328° |
| 2026-05-01 14:15 | 51.47058 | -0.46227 | 97 ft | 2 kts | 326° |
| 2026-05-01 14:15 | 51.47046 | -0.46214 | 97 ft | 2 kts | 325° |
| 2026-05-01 14:16 | 51.47043 | -0.46210 | 97 ft | 0 kts | 325° |
| 2026-05-01 14:20 | 51.47050 | -0.46218 | 97 ft | 5 kts | 325° |
| 2026-05-01 14:21 | 51.47113 | -0.46291 | 97 ft | 14 kts | 324° |
| 2026-05-01 14:21 | 51.47202 | -0.46392 | 97 ft | 16 kts | 322° |
| 2026-05-01 14:21 | 51.47238 | -0.46561 | 97 ft | 17 kts | 270° |
| 2026-05-01 14:22 | 51.47202 | -0.46859 | 97 ft | 10 kts | 194° |
| 2026-05-01 14:22 | 51.47116 | -0.46866 | 97 ft | 13 kts | 178° |
| 2026-05-01 14:22 | 51.47015 | -0.46865 | 96 ft | 15 kts | 181° |
| 2026-05-01 14:22 | 51.46926 | -0.46864 | 96 ft | 2 kts | 179° |
| 2026-05-01 14:23 | 51.46924 | -0.46864 | 96 ft | 0 kts | 179° |
| 2026-05-01 14:23 | 51.46907 | -0.46864 | 96 ft | 4 kts | 179° |
| 2026-05-01 14:23 | 51.46860 | -0.46862 | 96 ft | 8 kts | 179° |
| 2026-05-01 14:23 | 51.46784 | -0.46861 | 96 ft | 12 kts | 180° |
| 2026-05-01 14:24 | 51.46693 | -0.46869 | 96 ft | 10 kts | 202° |
| 2026-05-01 14:24 | 51.46656 | -0.46981 | 96 ft | 14 kts | 265° |
| 2026-05-01 14:24 | 51.46656 | -0.47166 | 96 ft | 18 kts | 270° |
| 2026-05-01 14:24 | 51.46654 | -0.47382 | 96 ft | 20 kts | 270° |
| 2026-05-01 14:25 | 51.46654 | -0.47621 | 96 ft | 21 kts | 270° |
| 2026-05-01 14:25 | 51.46653 | -0.47866 | 96 ft | 20 kts | 270° |
| 2026-05-01 14:25 | 51.46652 | -0.48035 | 96 ft | 5 kts | 270° |
| 2026-05-01 14:25 | 51.46652 | -0.48042 | 96 ft | 0 kts | 270° |
| 2026-05-01 14:27 | 51.46652 | -0.48048 | 96 ft | 3 kts | 270° |
| 2026-05-01 14:27 | 51.46651 | -0.48169 | 96 ft | 15 kts | 270° |
| 2026-05-01 14:27 | 51.46650 | -0.48340 | 96 ft | 9 kts | 269° |
| 2026-05-01 14:28 | 51.46648 | -0.48663 | 96 ft | 14 kts | 265° |
| 2026-05-01 14:28 | 51.46620 | -0.48738 | 96 ft | 8 kts | 221° |
| 2026-05-01 14:28 | 51.46545 | -0.48788 | 96 ft | 14 kts | 180° |
| 2026-05-01 14:28 | 51.46480 | -0.48696 | 95 ft | 13 kts | 99° |
| 2026-05-01 14:29 | 51.46479 | -0.48625 | 95 ft | 0 kts | 89° |
| 2026-05-01 14:29 | 51.46479 | -0.48624 | 95 ft | 0 kts | 89° |
| 2026-05-01 14:30 | 51.46493 | -0.45548 | 97 ft | 180 kts | 90° |
| 2026-05-01 14:30 | 51.46525 | -0.43386 | 360 ft | 201 kts | 92° |
| 2026-05-01 14:30 | 51.46553 | -0.41162 | 961 ft | 197 kts | 97° |
| 2026-05-01 14:31 | 51.45102 | -0.38125 | 2041 ft | 183 kts | 171° |
| 2026-05-01 14:31 | 51.43839 | -0.38292 | 2511 ft | 189 kts | 207° |
| 2026-05-01 14:31 | 51.42702 | -0.39481 | 2965 ft | 201 kts | 218° |
| 2026-05-01 14:31 | 51.41610 | -0.40984 | 3415 ft | 215 kts | 220° |
| 2026-05-01 14:32 | 51.40463 | -0.42657 | 3821 ft | 232 kts | 221° |
| 2026-05-01 14:32 | 51.39216 | -0.44493 | 4231 ft | 250 kts | 221° |
| 2026-05-01 14:32 | 51.37897 | -0.46435 | 4838 ft | 260 kts | 221° |
| 2026-05-01 14:32 | 51.36574 | -0.48388 | 5658 ft | 261 kts | 221° |
| 2026-05-01 14:33 | 51.35260 | -0.50332 | 6487 ft | 262 kts | 221° |
| 2026-05-01 14:33 | 51.34122 | -0.52598 | 7266 ft | 269 kts | 243° |
| 2026-05-01 14:33 | 51.33732 | -0.55523 | 8079 ft | 277 kts | 270° |
| 2026-05-01 14:33 | 51.34186 | -0.58534 | 8700 ft | 287 kts | 290° |
| 2026-05-01 14:34 | 51.35085 | -0.61434 | 9054 ft | 291 kts | 295° |
| 2026-05-01 14:34 | 51.36068 | -0.64267 | 9125 ft | 292 kts | 296° |
| 2026-05-01 14:34 | 51.37078 | -0.67115 | 9138 ft | 291 kts | 296° |
| 2026-05-01 14:34 | 51.38089 | -0.69967 | 9144 ft | 292 kts | 296° |
| 2026-05-01 14:35 | 51.38943 | -0.72879 | 9143 ft | 289 kts | 286° |
| 2026-05-01 14:35 | 51.39581 | -0.75925 | 9160 ft | 290 kts | 284° |
| 2026-05-01 14:35 | 51.40200 | -0.79071 | 9535 ft | 299 kts | 284° |
| 2026-05-01 14:35 | 51.40829 | -0.82190 | 10400 ft | 297 kts | 284° |
| 2026-05-01 14:36 | 51.41480 | -0.85349 | 10994 ft | 306 kts | 284° |
| 2026-05-01 14:36 | 51.42181 | -0.88707 | 11346 ft | 324 kts | 285° |
| 2026-05-01 14:36 | 51.42930 | -0.92251 | 11668 ft | 342 kts | 285° |
| 2026-05-01 14:36 | 51.43711 | -0.95927 | 11990 ft | 360 kts | 285° |
| 2026-05-01 14:37 | 51.44539 | -0.99819 | 12296 ft | 377 kts | 286° |
| 2026-05-01 14:37 | 51.45410 | -1.03902 | 12838 ft | 387 kts | 286° |
| 2026-05-01 14:37 | 51.46292 | -1.08037 | 13564 ft | 390 kts | 285° |
| 2026-05-01 14:37 | 51.47174 | -1.12193 | 14283 ft | 394 kts | 285° |
| 2026-05-01 14:38 | 51.48059 | -1.16366 | 14962 ft | 398 kts | 286° |
| 2026-05-01 14:38 | 51.49189 | -1.20453 | 15605 ft | 406 kts | 296° |
| 2026-05-01 14:38 | 51.50817 | -1.24233 | 16256 ft | 414 kts | 308° |
| 2026-05-01 14:38 | 51.52832 | -1.27551 | 16904 ft | 419 kts | 314° |
| 2026-05-01 14:39 | 51.54966 | -1.30745 | 17529 ft | 424 kts | 315° |
| 2026-05-01 14:39 | 51.57147 | -1.33980 | 18128 ft | 428 kts | 315° |
| 2026-05-01 14:39 | 51.59290 | -1.37361 | 18752 ft | 430 kts | 310° |
| 2026-05-01 14:39 | 51.61161 | -1.41075 | 19386 ft | 431 kts | 303° |
| 2026-05-01 14:40 | 51.62767 | -1.45174 | 20001 ft | 432 kts | 297° |
| 2026-05-01 14:40 | 51.64192 | -1.49412 | 20581 ft | 435 kts | 295° |
| 2026-05-01 14:40 | 51.65601 | -1.53758 | 21157 ft | 438 kts | 295° |
| 2026-05-01 14:40 | 51.67009 | -1.58080 | 21710 ft | 442 kts | 295° |
| 2026-05-01 14:41 | 51.68472 | -1.62533 | 22262 ft | 446 kts | 295° |
| 2026-05-01 14:41 | 51.69725 | -1.67099 | 22796 ft | 446 kts | 287° |
| 2026-05-01 14:41 | 51.70602 | -1.71882 | 23331 ft | 446 kts | 279° |
| 2026-05-01 14:41 | 51.71114 | -1.76862 | 23858 ft | 447 kts | 274° |
| 2026-05-01 14:42 | 51.71471 | -1.81876 | 24372 ft | 450 kts | 273° |
| 2026-05-01 14:42 | 51.71806 | -1.86903 | 24873 ft | 454 kts | 273° |
| 2026-05-01 14:42 | 51.72156 | -1.92020 | 25370 ft | 457 kts | 273° |
| 2026-05-01 14:42 | 51.72508 | -1.97090 | 25817 ft | 461 kts | 273° |
| 2026-05-01 14:43 | 51.72868 | -2.02234 | 26274 ft | 464 kts | 273° |
| 2026-05-01 14:43 | 51.73232 | -2.07455 | 26745 ft | 467 kts | 273° |
| 2026-05-01 14:43 | 51.73601 | -2.12734 | 27198 ft | 470 kts | 273° |
| 2026-05-01 14:43 | 51.73967 | -2.17981 | 27629 ft | 473 kts | 273° |
| 2026-05-01 14:44 | 51.74332 | -2.23232 | 28058 ft | 476 kts | 273° |
| 2026-05-01 14:44 | 51.75055 | -2.33801 | 29253 ft | 473 kts | 273° |
| 2026-05-01 14:44 | 51.75411 | -2.39078 | 29886 ft | 471 kts | 273° |
| 2026-05-01 14:45 | 51.75758 | -2.44290 | 30465 ft | 470 kts | 273° |
| 2026-05-01 14:45 | 51.76451 | -2.54792 | 31546 ft | 466 kts | 273° |
| 2026-05-01 14:45 | 51.76791 | -2.59979 | 32082 ft | 464 kts | 273° |
| 2026-05-01 14:46 | 51.77130 | -2.65150 | 32611 ft | 462 kts | 272° |
| 2026-05-01 14:46 | 51.77796 | -2.75380 | 33632 ft | 458 kts | 272° |
| 2026-05-01 14:46 | 51.78125 | -2.80515 | 34115 ft | 456 kts | 272° |
| 2026-05-01 14:47 | 51.78445 | -2.85562 | 34557 ft | 454 kts | 272° |
| 2026-05-01 14:47 | 51.78767 | -2.90658 | 34879 ft | 455 kts | 272° |
| 2026-05-01 14:47 | 51.79080 | -2.95682 | 35143 ft | 456 kts | 272° |
| 2026-05-01 14:48 | 51.79710 | -3.05903 | 35655 ft | 459 kts | 272° |
| 2026-05-01 14:48 | 51.80026 | -3.11062 | 35908 ft | 460 kts | 272° |
| 2026-05-01 14:48 | 51.80648 | -3.21370 | 36104 ft | 463 kts | 272° |
| 2026-05-01 14:49 | 51.81867 | -3.42041 | 36123 ft | 464 kts | 271° |
| 2026-05-01 14:50 | 51.83696 | -3.62737 | 36127 ft | 468 kts | 278° |
| 2026-05-01 14:51 | 51.85708 | -3.78216 | 36133 ft | 468 kts | 277° |
| 2026-05-01 14:52 | 51.87680 | -3.93614 | 36138 ft | 469 kts | 277° |
| 2026-05-01 14:53 | 51.89646 | -4.09176 | 36140 ft | 470 kts | 277° |
| 2026-05-01 14:53 | 51.90947 | -4.19566 | 36142 ft | 470 kts | 277° |
| 2026-05-01 14:54 | 51.92238 | -4.29946 | 36141 ft | 470 kts | 277° |
| 2026-05-01 14:54 | 51.93513 | -4.40303 | 36141 ft | 470 kts | 277° |
| 2026-05-01 14:55 | 51.94778 | -4.50650 | 36140 ft | 470 kts | 277° |
| 2026-05-01 14:55 | 51.96034 | -4.61015 | 36138 ft | 470 kts | 277° |
| 2026-05-01 14:56 | 51.97287 | -4.71445 | 36139 ft | 471 kts | 276° |
| 2026-05-01 14:56 | 51.98519 | -4.81790 | 36139 ft | 471 kts | 276° |
| 2026-05-01 14:57 | 51.99791 | -4.92184 | 36139 ft | 472 kts | 278° |
| 2026-05-01 14:57 | 52.02753 | -5.07415 | 36132 ft | 478 kts | 288° |
| 2026-05-01 14:58 | 52.05626 | -5.17198 | 36136 ft | 481 kts | 294° |
| 2026-05-01 14:58 | 52.09017 | -5.26552 | 36132 ft | 483 kts | 297° |
| 2026-05-01 14:59 | 52.12498 | -5.35884 | 36133 ft | 484 kts | 297° |
| 2026-05-01 14:59 | 52.15965 | -5.45273 | 36132 ft | 485 kts | 296° |
| 2026-05-01 15:00 | 52.21067 | -5.59511 | 36128 ft | 485 kts | 293° |
| 2026-05-01 15:01 | 52.23840 | -5.69402 | 36126 ft | 479 kts | 285° |
| 2026-05-01 15:01 | 52.25867 | -5.79670 | 36130 ft | 476 kts | 279° |
| 2026-05-01 15:02 | 52.27364 | -5.90132 | 36123 ft | 475 kts | 277° |
| 2026-05-01 15:02 | 52.28811 | -6.00646 | 36125 ft | 476 kts | 277° |
| 2026-05-01 15:03 | 52.30257 | -6.11146 | 36131 ft | 476 kts | 277° |
| 2026-05-01 15:03 | 52.31704 | -6.21667 | 36137 ft | 475 kts | 277° |
| 2026-05-01 15:04 | 52.33143 | -6.32187 | 36128 ft | 476 kts | 277° |
| 2026-05-01 15:04 | 52.34579 | -6.42768 | 36132 ft | 476 kts | 277° |
| 2026-05-01 15:05 | 52.35997 | -6.53269 | 36111 ft | 476 kts | 277° |
| 2026-05-01 15:05 | 52.37415 | -6.63870 | 36101 ft | 476 kts | 277° |
| 2026-05-01 15:06 | 52.38824 | -6.74474 | 36101 ft | 476 kts | 276° |
| 2026-05-01 15:06 | 52.40223 | -6.85091 | 36103 ft | 477 kts | 276° |
| 2026-05-01 15:07 | 52.41608 | -6.95684 | 36077 ft | 477 kts | 276° |
| 2026-05-01 15:07 | 52.42987 | -7.06302 | 36097 ft | 478 kts | 276° |
| 2026-05-01 15:08 | 52.44353 | -7.16907 | 36095 ft | 478 kts | 276° |
| 2026-05-01 15:08 | 52.45714 | -7.27558 | 36100 ft | 478 kts | 276° |
| 2026-05-01 15:09 | 52.47069 | -7.38242 | 36092 ft | 478 kts | 276° |
| 2026-05-01 15:09 | 52.48409 | -7.48915 | 36095 ft | 478 kts | 276° |
| 2026-05-01 15:10 | 52.49736 | -7.59554 | 36083 ft | 477 kts | 276° |
| 2026-05-01 15:10 | 52.52320 | -7.75472 | 36078 ft | 481 kts | 281° |
| 2026-05-01 15:11 | 52.55167 | -7.91202 | 36073 ft | 481 kts | 281° |
| 2026-05-01 15:12 | 52.57048 | -8.01749 | 36073 ft | 480 kts | 281° |
| 2026-05-01 15:12 | 52.59851 | -8.17555 | 36075 ft | 480 kts | 281° |
| 2026-05-01 15:14 | 52.64472 | -8.43858 | 36061 ft | 480 kts | 282° |
| 2026-05-01 15:14 | 52.67211 | -8.59673 | 36055 ft | 480 kts | 282° |
| 2026-05-01 15:15 | 52.69037 | -8.70324 | 36292 ft | 480 kts | 281° |
| 2026-05-01 15:15 | 52.70835 | -8.80880 | 36111 ft | 478 kts | 281° |
| 2026-05-01 15:16 | 52.73556 | -9.02153 | 36056 ft | 474 kts | 275° |
| 2026-05-01 15:18 | 52.76240 | -9.28975 | 35801 ft | 474 kts | 275° |
| 2026-05-01 15:18 | 52.76772 | -9.34319 | 35933 ft | 476 kts | 275° |